Edmonton City Centre, Alberta

8:55 PM MDT on April 25, 2015 (GMT -0600)
EASTWOOD | | Change Station
CLOSE
Current Station
Personal Weather Station
Location: Edmonton, ALBERTA
Elevation: 2172 ft
Nearby Weather Stations

Elev 2172 ft 53.57 °N, 113.48 °W | Updated 4 minutes ago

Clear
Clear
40.3 °F
Feels Like 40 °F
N
2.7
Wind Variable Wind from SSW

Tomorrow is forecast to be nearly the same temperature as today.

Today
High -- | Low -- °F
--% Chance of Precip.
Yesterday
High -- | Low -- °F
Precip. -- in
6:11 AM 8:53 PM
Waxing Crescent, 51% visible
Pressure 30.11 in
Visibility 9.0 miles
Clouds Clear
Windchill 40 °F
Dew Point 20 °F
Humidity 44%
Rainfall 0.00 in
Snow Depth Not available.
UV 0 out of 12
Pollen Not available.
Air Quality Not available.
Flu Activity Not available.
METAR CYED 260200Z AUTO 07007KT 9SM CLR 05/M09 A3003 RMK SLP196

More Conditions Fewer Conditions

Pressure 30.11 in
Visibility 9.0 miles
Clouds Clear
Windchill 40 °F
Dew Point 20 °F
Humidity 44%
Rainfall 0.00 in
Snow Depth Not available.
UV 0 out of 12
Pollen Not available.
Air Quality Not available.
Flu Activity Not available.
METAR CYED 260200Z AUTO 07007KT 9SM CLR 05/M09 A3003 RMK SLP196

More Conditions Fewer Conditions

10-Day Weather Forecast

Almanac

Astronomy

Apr. 25, 2015 Rise Set
Actual Time
Civil Twilight
Nautical Twilight
Astronomical Twilight
Moon
Length of Visible Light
Length of Day
Tomorrow will be .
, % of the Moon is Illuminated

Today's Extremes

Country Highs Country Lows

Community

WunderPhotos

Upload Photos

1,816,909 photos uploaded!

WunderBlogs® & News

Nearby

Air Quality

  Air Quality AQ Index Pollutant
Not available.

Snow Depth

Station Depth Elevation

Earthquake Activity

City Distance Mag. Time & Date
Minimum magnitude displayed is 2.5.

Coastal Water Temperatures

Place Temperature

Stations

Nearby Weather Stations

Station Location Temp. Windchill Dew Point Humidity Wind Precip. Elev Updated Type